Time;durP1;ratioP1;P1;durP2;ratioP2;P2;SDS_P1;SDS_P2;PMS_P1;PMS_P2;Temp;Humidity;BMP_temperature;BMP_pressure;BME280_temperature;BME280_humidity;BME280_pressure;Samples;Min_cycle;Max_cycle;Signal;HPM_P1;HPM_P2
2022/03/11 00:02:13;;;;;;;;;;;5.50;38.60;;;3.31;43.92;102733.63;8297525;28;19997;-82
2022/03/11 00:06:35;;;;;;;;;;;5.30;38.80;;;3.44;43.74;102753.50;8298872;28;20012;-82
2022/03/11 00:10:56;;;;;;;;;;;5.40;38.50;;;3.35;44.03;102750.88;8272414;28;19926;-82
2022/03/11 00:15:18;;;;;;;;;;;5.40;38.60;;;3.09;43.85;102710.22;8268920;28;20016;-82
2022/03/11 00:19:42;;;;;;;;;;;5.30;38.60;;;3.23;44.06;102745.59;8285391;28;19918;-81
2022/03/11 00:24:04;;;;;;;;;;;5.30;38.90;;;3.22;43.86;102741.31;8283444;28;20384;-82
2022/03/11 00:28:25;;;;;;;;;;;5.20;38.80;;;3.01;43.82;102713.59;8269444;28;20008;-82
2022/03/11 00:32:48;;;;;;;;;;;5.20;38.60;;;3.26;43.95;102766.28;8297137;28;19928;-82
2022/03/11 00:37:09;;;;;;;;;;;5.20;38.80;;;2.97;43.96;102723.03;8276091;28;20008;-81
2022/03/11 00:41:31;;;;;;;;;;;5.10;37.80;;;2.96;43.82;102725.59;8277549;28;19922;-81
2022/03/11 00:45:53;;;;;;;;;;;5.10;38.20;;;3.13;43.92;102751.53;8269977;28;19917;-81
2022/03/11 00:50:14;;;;;;;;;;;5.00;38.60;;;2.96;43.88;102723.00;8280868;28;20375;-81
2022/03/11 00:54:36;;;;;;;;;;;4.90;38.90;;;3.00;43.75;102741.13;8283360;28;20009;-81
2022/03/11 00:58:58;;;;;;;;;;;5.00;38.40;;;2.96;43.86;102738.50;8259599;28;20007;-81
2022/03/11 01:03:19;;;;;;;;;;;5.00;38.80;;;2.89;43.74;102716.94;8254973;28;19996;-81
2022/03/11 01:07:41;;;;;;;;;;;4.90;38.60;;;2.73;43.91;102700.47;8281900;28;20000;-81
2022/03/11 01:12:03;;;;;;;;;;;4.90;38.80;;;2.93;43.95;102741.91;8274848;28;19928;-81
2022/03/11 01:16:24;;;;;;;;;;;4.90;38.80;;;2.61;43.99;102701.19;8260881;28;20032;-82
2022/03/11 01:20:46;;;;;;;;;;;4.90;39.00;;;2.75;43.96;102728.84;8280305;28;20400;-82
2022/03/11 01:25:08;;;;;;;;;;;4.80;38.90;;;2.63;44.16;102712.41;8274354;28;20400;-81
2022/03/11 01:29:30;;;;;;;;;;;4.70;38.90;;;2.72;44.02;102739.13;8281799;28;20351;-82
2022/03/11 01:33:52;;;;;;;;;;;4.80;39.10;;;2.74;43.76;102740.00;8267989;28;20443;-81
2022/03/11 01:38:14;;;;;;;;;;;4.70;38.60;;;2.49;44.15;102713.97;8296026;28;20012;-82
2022/03/11 01:42:36;;;;;;;;;;;4.60;38.90;;;1.94;43.88;102624.00;8298798;28;20004;-82
2022/03/11 01:46:58;;;;;;;;;;;4.60;38.90;;;2.18;43.89;102664.66;8278587;28;20007;-82
2022/03/11 01:51:19;;;;;;;;;;;4.60;38.80;;;2.57;43.60;102740.72;8295972;28;19928;-82
2022/03/11 01:55:42;;;;;;;;;;;4.50;38.70;;;2.47;43.82;102712.22;8282255;28;20402;-83
2022/03/11 02:00:05;;;;;;;;;;;4.50;38.60;;;2.20;44.08;102673.28;8270369;28;19923;-82
2022/03/11 02:04:34;;;;;;;;;;;4.50;38.90;;;2.53;44.34;102725.19;8261603;28;20394;-83
2022/03/11 02:08:56;;;;;;;;;;;4.40;39.00;;;2.35;44.05;102711.25;8284015;28;20468;-83
2022/03/11 02:13:17;;;;;;;;;;;4.40;38.80;;;2.19;44.03;102691.31;8294792;28;19929;-83
2022/03/11 02:17:39;;;;;;;;;;;4.40;38.90;;;2.25;43.93;102706.84;8280326;28;20016;-83
2022/03/11 02:22:01;;;;;;;;;;;4.30;38.90;;;2.19;43.92;102704.19;8274477;28;19924;-83
2022/03/11 02:26:25;;;;;;;;;;;4.30;38.50;;;2.15;44.03;102699.84;8273575;28;20000;-83
2022/03/11 02:30:46;;;;;;;;;;;4.20;38.60;;;2.19;44.18;102699.91;8279518;28;19931;-83
2022/03/11 02:35:09;;;;;;;;;;;4.10;38.70;;;2.27;44.04;102712.00;8288520;28;20469;-84
2022/03/11 02:39:30;;;;;;;;;;;4.20;38.80;;;2.23;43.89;102718.84;8280658;28;20004;-83
2022/03/11 02:43:52;;;;;;;;;;;4.20;38.90;;;1.97;43.84;102665.31;8267013;28;20003;-84
2022/03/11 02:48:13;;;;;;;;;;;4.10;38.90;;;2.14;43.96;102706.72;8268589;28;20032;-84
2022/03/11 02:52:35;;;;;;;;;;;4.10;38.90;;;2.09;44.06;102698.06;8279069;28;19929;-83
2022/03/11 02:56:57;;;;;;;;;;;4.10;39.00;;;1.97;43.82;102678.19;8280682;28;20366;-84
2022/03/11 03:01:18;;;;;;;;;;;4.00;39.10;;;1.80;44.03;102659.06;8293425;28;19996;-85
2022/03/11 03:05:41;;;;;;;;;;;4.00;38.70;;;1.77;43.97;102672.75;8280491;28;20008;-85
2022/03/11 03:10:03;;;;;;;;;;;4.00;38.90;;;1.84;44.05;102688.31;8295928;28;20001;-86
2022/03/11 03:14:25;;;;;;;;;;;3.70;38.30;;;1.79;43.98;102688.25;8277775;28;20008;-87
2022/03/11 03:18:47;;;;;;;;;;;3.90;38.90;;;1.70;44.08;102677.81;8270113;28;20004;-86
2022/03/11 03:23:12;;;;;;;;;;;3.90;39.10;;;1.69;44.25;102678.66;8266486;28;20008;-87
2022/03/11 03:27:34;;;;;;;;;;;3.80;39.00;;;1.67;44.17;102686.34;8285876;28;20001;-87
2022/03/11 03:31:58;;;;;;;;;;;3.50;38.90;;;1.29;43.82;102631.78;8285178;28;19932;-87
2022/03/11 03:36:20;;;;;;;;;;;3.80;39.20;;;1.24;44.28;102629.16;8285814;28;20004;-87
2022/03/11 03:40:41;;;;;;;;;;;3.50;38.80;;;1.45;43.88;102661.19;8276612;28;19924;-86
2022/03/11 03:45:04;;;;;;;;;;;3.60;39.10;;;1.50;44.11;102685.28;8292303;28;20016;-87
2022/03/11 03:49:26;;;;;;;;;;;3.60;38.90;;;1.47;44.02;102687.81;8277550;28;19996;-86
2022/03/11 03:53:47;;;;;;;;;;;3.60;39.00;;;1.30;44.11;102665.28;8286351;28;20008;-87
2022/03/11 03:58:09;;;;;;;;;;;3.50;39.10;;;1.23;44.06;102663.44;8278289;28;20000;-87
2022/03/11 04:02:32;;;;;;;;;;;3.50;39.00;;;1.42;44.40;102704.91;8281239;28;20004;-87
2022/03/11 04:06:53;;;;;;;;;;;3.60;38.90;;;1.32;44.14;102685.88;8305535;28;20442;-87
2022/03/11 04:11:15;;;;;;;;;;;3.30;39.00;;;1.25;44.01;102686.63;8278088;28;20016;-88
2022/03/11 04:15:36;;;;;;;;;;;3.30;39.10;;;1.35;43.98;102695.34;8276692;28;20012;-88
2022/03/11 04:19:59;;;;;;;;;;;3.30;39.20;;;1.28;44.23;102686.69;8275574;28;20450;-88
2022/03/11 04:24:23;;;;;;;;;;;3.10;39.20;;;1.18;44.15;102664.22;8269668;28;19996;-87
2022/03/11 04:28:44;;;;;;;;;;;3.30;39.20;;;1.18;44.05;102666.78;8299895;28;19996;-87
2022/03/11 04:33:06;;;;;;;;;;;3.20;39.10;;;1.01;44.23;102649.38;8268024;28;19947;-88
2022/03/11 04:37:27;;;;;;;;;;;3.30;39.30;;;1.08;44.04;102676.94;8273989;28;19923;-88
2022/03/11 04:41:49;;;;;;;;;;;3.30;39.00;;;1.03;44.17;102670.88;8278999;28;20011;-90
2022/03/11 04:46:10;;;;;;;;;;;3.20;39.00;;;1.07;44.38;102687.22;8287771;28;20016;-89
2022/03/11 04:50:32;;;;;;;;;;;3.10;39.00;;;1.04;44.00;102693.16;8304674;28;19928;-89
2022/03/11 04:54:53;;;;;;;;;;;3.10;39.30;;;1.02;44.33;102674.25;8281902;28;20012;-88
2022/03/11 04:59:15;;;;;;;;;;;3.10;39.20;;;0.51;44.23;102607.44;8273719;28;20024;-88
2022/03/11 05:03:37;;;;;;;;;;;3.00;38.90;;;0.91;44.23;102668.09;8278171;28;20008;-88
2022/03/11 05:08:00;;;;;;;;;;;3.10;39.20;;;0.86;44.11;102670.59;8284285;28;20450;-89
2022/03/11 05:12:22;;;;;;;;;;;3.00;39.20;;;0.94;43.92;102664.69;8276350;28;20453;-89
2022/03/11 05:16:43;;;;;;;;;;;3.00;39.20;;;0.94;43.94;102681.00;8284211;28;20005;-89
2022/03/11 05:21:05;;;;;;;;;;;3.30;39.20;;;0.95;44.12;102687.03;8268348;28;20008;-88
2022/03/11 05:25:26;;;;;;;;;;;3.00;39.20;;;0.88;44.19;102686.91;8270362;28;20008;-89
2022/03/11 05:29:48;;;;;;;;;;;3.00;39.10;;;0.94;44.27;102700.72;8283348;28;20012;-89
2022/03/11 05:34:09;;;;;;;;;;;2.80;39.20;;;0.79;44.25;102686.75;8276891;28;20000;-89
2022/03/11 05:38:31;;;;;;;;;;;2.90;39.00;;;0.75;44.11;102684.09;8270172;28;20016;-88
2022/03/11 05:43:01;;;;;;;;;;;2.90;38.90;;;0.78;44.25;102685.00;8275789;28;19952;-90
2022/03/11 05:47:22;;;;;;;;;;;2.90;39.00;;;0.84;44.13;102704.84;8276609;28;19988;-89
2022/03/11 05:51:44;;;;;;;;;;;2.90;38.40;;;0.71;44.10;102688.34;8291445;28;20310;-90
2022/03/11 05:56:05;;;;;;;;;;;2.80;38.70;;;0.65;44.38;102683.09;8276054;28;20355;-90
2022/03/11 06:00:27;;;;;;;;;;;3.00;39.10;;;0.76;44.37;102707.28;8280118;28;20335;-90
2022/03/11 06:04:49;;;;;;;;;;;2.80;39.00;;;0.64;44.32;102692.50;8272490;28;20005;-88
2022/03/11 06:09:11;;;;;;;;;;;2.80;38.90;;;0.62;44.12;102693.28;8263332;28;20015;-87
2022/03/11 06:13:32;;;;;;;;;;;2.80;38.70;;;0.60;44.26;102692.44;8278315;28;19944;-87
2022/03/11 06:17:54;;;;;;;;;;;2.70;38.90;;;0.66;44.18;102718.25;8274913;28;19924;-87
2022/03/11 06:22:16;;;;;;;;;;;2.80;39.00;;;0.71;44.48;102706.34;8272906;28;20351;-86
2022/03/11 06:26:37;;;;;;;;;;;2.70;38.90;;;0.70;44.40;102703.72;8289945;28;20016;-86
2022/03/11 06:30:59;;;;;;;;;;;2.80;39.20;;;0.77;44.20;102715.84;8266450;28;19951;-86
2022/03/11 06:35:20;;;;;;;;;;;2.90;39.20;;;0.77;44.21;102708.16;8273039;28;19975;-86
2022/03/11 06:39:42;;;;;;;;;;;2.90;39.20;;;0.80;44.22;102696.19;8261472;28;19969;-86
2022/03/11 06:44:04;;;;;;;;;;;2.90;39.10;;;0.94;44.42;102724.72;8261783;28;19926;-86
2022/03/11 06:48:26;;;;;;;;;;;3.00;39.30;;;0.90;44.35;102704.09;8272717;28;19923;-86
2022/03/11 06:52:47;;;;;;;;;;;3.00;39.30;;;1.00;44.21;102721.38;8287305;28;19925;-86
2022/03/11 06:57:16;;;;;;;;;;;3.10;39.40;;;1.16;44.37;102733.69;8265155;28;20012;-86
2022/03/11 07:01:38;;;;;;;;;;;3.20;39.00;;;1.12;44.42;102721.59;8284110;28;19922;-84
2022/03/11 07:06:00;;;;;;;;;;;3.20;39.00;;;1.20;44.13;102732.88;8280668;28;20004;-84
2022/03/11 07:10:21;;;;;;;;;;;3.20;38.50;;;1.44;44.18;102736.69;8277858;28;20012;-91
2022/03/11 07:14:43;;;;;;;;;;;3.30;38.80;;;1.32;44.34;102697.06;8269194;28;20494;-89
2022/03/11 07:19:04;;;;;;;;;;;3.50;39.00;;;1.59;44.46;102733.44;8272846;28;19917;-85
2022/03/11 07:23:27;;;;;;;;;;;3.60;39.00;;;1.74;44.31;102733.69;8282288;28;20000;-85
2022/03/11 07:27:49;;;;;;;;;;;3.70;38.70;;;1.81;44.06;102730.34;8269412;28;20027;-86
2022/03/11 07:32:12;;;;;;;;;;;3.80;38.00;;;1.86;44.25;102718.38;8273764;28;19921;-85
2022/03/11 07:36:34;;;;;;;;;;;3.90;37.30;;;1.83;44.01;102717.47;8277443;28;19999;-85
2022/03/11 07:40:55;;;;;;;;;;;4.00;37.90;;;1.93;44.19;102725.34;8265177;28;20011;-83
2022/03/11 07:45:17;;;;;;;;;;;3.90;37.20;;;2.07;43.76;102753.00;8292682;28;20027;-88
2022/03/11 07:49:39;;;;;;;;;;;4.10;37.50;;;2.04;44.00;102737.50;8290274;28;19921;-86
2022/03/11 07:54:00;;;;;;;;;;;4.10;37.90;;;1.99;43.81;102696.22;8288136;28;19922;-86
2022/03/11 07:58:22;;;;;;;;;;;4.20;38.00;;;2.26;43.73;102729.19;8279471;28;19917;-80
2022/03/11 08:02:43;;;;;;;;;;;4.20;37.00;;;2.25;44.06;102722.31;8294749;28;20359;-79
2022/03/11 08:07:06;;;;;;;;;;;4.10;38.00;;;2.37;43.77;102717.28;8272432;28;20361;-87
2022/03/11 08:11:28;;;;;;;;;;;4.40;36.40;;;2.45;43.66;102709.63;8267473;28;19922;-90
2022/03/11 08:15:49;;;;;;;;;;;4.40;35.60;;;2.56;43.93;102697.69;8304785;28;20000;-89
2022/03/11 08:20:11;;;;;;;;;;;4.60;36.30;;;2.75;43.70;102693.59;8282978;28;20024;-88
2022/03/11 08:24:33;;;;;;;;;;;4.70;36.80;;;2.98;43.88;102706.69;8282937;28;20000;-86
2022/03/11 08:28:54;;;;;;;;;;;5.10;37.40;;;3.15;43.42;102706.81;8280096;28;19923;-85
2022/03/11 08:33:20;;;;;;;;;;;5.10;36.10;;;3.28;43.62;102694.88;8290218;28;20382;-82
2022/03/11 08:37:42;;;;;;;;;;;5.60;37.70;;;3.57;43.51;102709.72;8282178;28;19928;-82
2022/03/11 08:42:04;;;;;;;;;;;5.50;37.00;;;3.65;43.46;102687.38;8263297;28;20012;-80
2022/03/11 08:46:26;;;;;;;;;;;5.70;37.30;;;3.84;43.58;102681.41;8266644;28;19921;-80
2022/03/11 08:50:48;;;;;;;;;;;5.90;37.60;;;4.11;43.60;102695.31;8299730;28;20012;-79
2022/03/11 08:55:10;;;;;;;;;;;6.10;37.20;;;4.22;43.45;102685.88;8275249;28;19932;-79
2022/03/11 08:59:31;;;;;;;;;;;6.20;36.40;;;4.47;43.11;102715.22;8291828;28;20012;-82
2022/03/11 09:03:53;;;;;;;;;;;6.40;37.00;;;4.50;43.08;102704.88;8259100;28;20306;-82
2022/03/11 09:08:14;;;;;;;;;;;6.50;36.00;;;4.69;43.16;102705.78;8292227;28;20016;-82
2022/03/11 09:12:37;;;;;;;;;;;6.70;36.00;;;4.95;43.57;102716.16;8282349;28;19928;-81
2022/03/11 09:16:59;;;;;;;;;;;6.90;37.20;;;5.00;43.19;102701.50;8279519;28;19924;-81
2022/03/11 09:21:21;;;;;;;;;;;7.10;35.80;;;5.14;43.43;102713.59;8275106;28;20353;-84
2022/03/11 09:25:42;;;;;;;;;;;7.20;36.60;;;5.12;43.32;102679.91;8269078;28;20019;-82
2022/03/11 09:30:06;;;;;;;;;;;7.30;36.20;;;5.30;43.21;102686.81;8273857;28;20031;-82
2022/03/11 09:34:27;;;;;;;;;;;7.40;36.90;;;5.22;42.88;102666.09;8279453;28;20434;-82
2022/03/11 09:38:49;;;;;;;;;;;7.50;36.50;;;5.53;43.03;102692.78;8261471;28;20435;-82
2022/03/11 09:43:15;;;;;;;;;;;7.70;34.90;;;5.20;42.60;102616.00;8253918;28;20384;-82
2022/03/11 09:47:39;;;;;;;;;;;7.70;35.80;;;5.81;42.67;102700.50;8260373;28;20008;-82
2022/03/11 09:52:06;;;;;;;;;;;7.80;36.10;;;5.79;42.55;102665.06;8289234;28;19922;-82
2022/03/11 09:56:29;;;;;;;;;;;7.90;35.50;;;6.03;42.61;102698.69;8290996;28;19918;-82
2022/03/11 10:00:50;;;;;;;;;;;7.90;35.20;;;5.96;42.41;102668.47;8283370;28;20008;-82
2022/03/11 10:05:13;;;;;;;;;;;8.10;34.60;;;6.16;42.18;102679.63;8266087;28;20004;-82
2022/03/11 10:09:34;;;;;;;;;;;8.20;35.40;;;6.32;42.06;102674.31;8263539;28;20011;-84
2022/03/11 10:14:06;;;;;;;;;;;8.10;33.80;;;6.42;42.66;102670.81;8274961;28;19928;-84
2022/03/11 10:18:28;;;;;;;;;;;8.40;33.30;;;6.56;42.47;102679.38;8274971;28;20364;-84
2022/03/11 10:22:50;;;;;;;;;;;8.50;35.70;;;6.65;42.02;102671.53;8301137;28;20008;-83
2022/03/11 10:27:11;;;;;;;;;;;8.60;34.40;;;6.76;41.98;102666.25;8278812;28;20000;-83
2022/03/11 10:31:35;;;;;;;;;;;8.70;33.50;;;6.89;41.81;102672.22;8294971;28;19921;-84
2022/03/11 10:35:56;;;;;;;;;;;8.80;33.40;;;6.79;41.81;102642.00;8282484;28;20392;-93
2022/03/11 10:40:18;;;;;;;;;;;8.80;32.60;;;7.02;41.20;102654.75;8270736;28;20466;-84
2022/03/11 10:44:52;;;;;;;;;;;8.90;30.90;;;7.10;41.61;102660.75;8291722;28;20000;-84
2022/03/11 10:49:27;;;;;;;;;;;9.00;31.90;;;7.18;40.95;102651.13;8270420;28;19917;-83
2022/03/11 10:53:50;;;;;;;;;;;9.10;34.20;;;7.35;40.77;102650.97;8270931;28;19951;-83
2022/03/11 10:58:16;;;;;;;;;;;9.20;34.40;;;7.45;41.22;102657.81;8299145;28;20096;-83
2022/03/11 11:02:38;;;;;;;;;;;9.30;32.20;;;7.53;41.40;102632.59;8271063;28;19924;-83
2022/03/11 11:06:59;;;;;;;;;;;9.40;33.90;;;7.73;40.85;102632.34;8263790;28;20352;-83
2022/03/11 11:11:22;;;;;;;;;;;9.80;32.80;;;7.91;40.90;102636.44;8270245;28;19918;-83
2022/03/11 11:15:43;;;;;;;;;;;9.80;32.60;;;8.06;41.07;102635.38;8270011;28;20461;-83
2022/03/11 11:20:24;;;;;;;;;;;9.90;29.10;;;7.94;40.57;102586.97;8269929;28;20008;-83
2022/03/11 11:24:49;;;;;;;;;;;10.00;32.60;;;8.09;40.32;102606.69;8297940;28;19924;-84
2022/03/11 11:29:11;;;;;;;;;;;10.10;34.40;;;8.30;40.08;102623.75;8269742;28;20011;-83
2022/03/11 11:33:33;;;;;;;;;;;10.10;31.90;;;8.43;39.96;102623.59;8278894;28;19933;-83
2022/03/11 11:37:56;;;;;;;;;;;10.30;29.90;;;8.51;39.89;102625.19;8300306;28;20541;-84
2022/03/11 11:42:18;;;;;;;;;;;10.40;31.20;;;8.57;40.05;102606.88;8281882;28;19992;-83
2022/03/11 11:47:02;;;;;;;;;;;10.40;31.60;;;8.67;40.06;102604.09;8266795;28;20008;-83
2022/03/11 11:51:36;;;;;;;;;;;10.50;31.10;;;8.78;39.83;102610.84;8294402;28;19924;-83
2022/03/11 11:55:58;;;;;;;;;;;10.60;32.40;;;8.83;40.12;102585.59;8294428;28;20007;-83
2022/03/11 12:00:38;;;;;;;;;;;10.90;31.50;;;9.07;39.68;102596.44;8264399;28;19921;-83
2022/03/11 12:05:00;;;;;;;;;;;10.80;29.90;;;8.77;39.62;102517.94;8259635;28;19971;-84
2022/03/11 12:09:37;;;;;;;;;;;10.90;33.60;;;9.29;39.65;102569.06;8278830;28;20012;-84
2022/03/11 12:14:02;;;;;;;;;;;11.10;29.60;;;9.37;39.81;102558.50;8283376;28;20375;-84
2022/03/11 12:18:34;;;;;;;;;;;11.10;30.40;;;9.36;39.41;102548.09;8281706;28;20396;-83
2022/03/11 12:23:00;;;;;;;;;;;11.30;30.40;;;9.39;39.30;102520.19;8272219;28;20401;-83
2022/03/11 12:27:55;;;;;;;;;;;11.30;27.40;;;9.61;39.17;102538.84;8271429;28;19918;-84
2022/03/11 12:32:16;;;;;;;;;;;11.40;29.90;;;9.50;38.89;102494.75;8274396;28;19932;-84
2022/03/11 12:36:38;;;;;;;;;;;11.50;28.50;;;9.60;37.90;102510.19;8268011;28;19924;-84
2022/03/11 12:41:06;;;;;;;;;;;11.40;29.90;;;9.80;37.86;102517.56;8294726;28;20008;-87
2022/03/11 12:45:36;;;;;;;;;;;11.60;30.70;;;9.67;37.97;102494.38;8301412;28;20299;-85
2022/03/11 12:50:04;;;;;;;;;;;11.60;26.70;;;9.81;37.47;102501.03;8262207;28;19940;-84
2022/03/11 12:54:31;;;;;;;;;;;11.60;29.30;;;9.92;37.97;102504.22;8280580;28;19921;-82
2022/03/11 12:58:56;;;;;;;;;;;11.70;30.90;;;9.98;37.99;102499.72;8277767;28;20012;-86
2022/03/11 13:03:17;;;;;;;;;;;11.80;28.90;;;9.86;36.65;102479.16;8292836;28;19925;-84
2022/03/11 13:07:39;;;;;;;;;;;11.80;28.20;;;10.00;37.63;102481.41;8280773;28;19917;-85
2022/03/11 13:12:20;;;;;;;;;;;11.80;28.90;;;10.16;37.40;102500.19;8271267;28;19925;-84
2022/03/11 13:16:42;;;;;;;;;;;11.90;30.40;;;10.05;37.20;102465.66;8266095;28;20458;-84
2022/03/11 13:21:11;;;;;;;;;;;11.90;27.10;;;10.12;37.02;102464.59;8277914;28;20402;-84
2022/03/11 13:25:32;;;;;;;;;;;12.00;28.70;;;10.16;36.66;102477.53;8275092;28;19925;-84
2022/03/11 13:30:02;;;;;;;;;;;12.00;27.30;;;10.11;36.94;102453.28;8279298;28;19924;-84
2022/03/11 13:34:31;;;;;;;;;;;12.00;30.20;;;10.23;36.72;102483.44;8263830;28;19928;-84
2022/03/11 13:39:07;;;;;;;;;;;12.00;29.20;;;10.25;37.06;102467.75;8293110;28;20035;-81
2022/03/11 13:43:30;;;;;;;;;;;12.00;29.40;;;10.06;36.86;102438.66;8291522;28;20008;-83
2022/03/11 13:48:04;;;;;;;;;;;12.00;29.60;;;10.08;36.82;102439.47;8295499;28;19918;-85
2022/03/11 13:52:25;;;;;;;;;;;12.00;29.40;;;10.22;36.44;102450.41;8272808;28;19925;-84
2022/03/11 13:56:48;;;;;;;;;;;12.00;29.70;;;10.28;36.57;102459.88;8278552;28;19917;-84
2022/03/11 14:01:10;;;;;;;;;;;11.80;29.10;;;10.30;36.56;102452.84;8286125;28;19928;-83
2022/03/11 14:05:39;;;;;;;;;;;12.00;28.30;;;10.25;36.31;102446.88;8279486;28;20501;-83
2022/03/11 14:10:02;;;;;;;;;;;12.00;29.50;;;10.23;36.35;102444.28;8274979;28;20008;-83
2022/03/11 14:14:32;;;;;;;;;;;12.00;26.90;;;10.32;36.25;102456.28;8263667;28;20287;-83
2022/03/11 14:18:54;;;;;;;;;;;12.10;28.80;;;10.28;35.95;102438.97;8279604;28;20005;-83
2022/03/11 14:23:16;;;;;;;;;;;12.10;28.90;;;10.12;36.13;102405.41;8278818;28;20210;-83
2022/03/11 14:27:37;;;;;;;;;;;11.90;29.00;;;10.02;36.06;102390.91;8263911;28;20393;-83
2022/03/11 14:31:59;;;;;;;;;;;12.00;29.30;;;10.22;35.86;102413.00;8289837;28;20455;-83
2022/03/11 14:36:21;;;;;;;;;;;12.10;28.50;;;10.23;35.51;102423.38;8268306;28;20370;-81
2022/03/11 14:40:42;;;;;;;;;;;11.90;26.90;;;10.12;36.16;102408.00;8264189;28;20382;-84
2022/03/11 14:45:08;;;;;;;;;;;12.00;28.10;;;10.25;35.68;102423.38;8277825;28;20004;-83
2022/03/11 14:49:29;;;;;;;;;;;12.00;27.10;;;10.22;35.96;102419.06;8264707;28;20332;-83
2022/03/11 14:53:51;;;;;;;;;;;12.00;28.80;;;9.66;36.14;102320.47;8278578;28;20397;-84
2022/03/11 14:58:13;;;;;;;;;;;12.20;28.50;;;10.22;35.84;102424.28;8267937;28;20008;-83
2022/03/11 15:02:36;;;;;;;;;;;12.00;27.10;;;10.20;36.13;102416.50;8278212;28;20012;-83
2022/03/11 15:06:57;;;;;;;;;;;12.00;29.70;;;10.27;36.34;102426.78;8265809;28;20309;-83
2022/03/11 15:11:19;;;;;;;;;;;12.00;28.10;;;9.96;36.01;102359.72;8296290;28;19924;-83
2022/03/11 15:15:41;;;;;;;;;;;12.00;28.00;;;10.15;35.77;102400.13;8270000;28;19921;-83
2022/03/11 15:20:03;;;;;;;;;;;11.90;28.80;;;10.06;35.66;102376.84;8267060;28;19917;-83
2022/03/11 15:24:24;;;;;;;;;;;12.00;28.70;;;10.17;35.77;102394.84;8274716;28;20450;-84
2022/03/11 15:28:47;;;;;;;;;;;11.90;28.10;;;10.01;35.41;102377.88;8277669;28;20376;-82
2022/03/11 15:33:08;;;;;;;;;;;11.90;27.70;;;10.08;35.67;102379.44;8281176;28;20390;-80
2022/03/11 15:37:30;;;;;;;;;;;11.90;29.30;;;10.08;35.09;102385.50;8279768;28;20453;-81
2022/03/11 15:41:51;;;;;;;;;;;11.90;28.00;;;9.90;34.98;102363.34;8287534;28;19917;-82
2022/03/11 15:46:17;;;;;;;;;;;11.80;29.00;;;9.93;35.52;102380.69;8282065;28;20008;-82
2022/03/11 15:50:39;;;;;;;;;;;11.80;29.20;;;9.58;35.04;102318.97;8270332;28;20390;-83
2022/03/11 15:55:08;;;;;;;;;;;11.70;27.60;;;9.91;35.40;102385.97;8296558;28;19926;-82
2022/03/11 15:59:30;;;;;;;;;;;11.70;28.40;;;9.89;35.44;102379.91;8271852;28;20012;-82
2022/03/11 16:03:52;;;;;;;;;;;11.70;30.00;;;9.93;35.45;102386.75;8285763;28;19939;-87
2022/03/11 16:08:14;;;;;;;;;;;11.70;29.40;;;9.83;35.35;102369.66;8282933;28;20004;-83
2022/03/11 16:12:36;;;;;;;;;;;11.40;28.50;;;9.79;35.24;102377.56;8275355;28;19927;-82
2022/03/11 16:16:58;;;;;;;;;;;11.60;27.30;;;9.72;35.22;102367.31;8263335;28;20004;-85
2022/03/11 16:21:21;;;;;;;;;;;11.50;29.20;;;9.62;35.41;102360.59;8290328;28;20383;-84
2022/03/11 16:25:42;;;;;;;;;;;11.40;29.80;;;9.65;35.17;102365.72;8262159;28;20016;-89
2022/03/11 16:30:05;;;;;;;;;;;11.40;29.20;;;9.48;35.69;102341.84;8253889;28;19935;-83
2022/03/11 16:34:29;;;;;;;;;;;11.50;30.40;;;9.62;35.41;102376.25;8275433;28;19921;-82
2022/03/11 16:38:51;;;;;;;;;;;11.40;29.40;;;9.43;35.78;102354.97;8288554;28;20012;-80
2022/03/11 16:43:12;;;;;;;;;;;11.40;30.20;;;9.34;35.27;102357.78;8271787;28;20019;-84
2022/03/11 16:47:34;;;;;;;;;;;11.30;29.60;;;9.29;35.56;102346.63;8270057;28;19996;-82
2022/03/11 16:51:56;;;;;;;;;;;11.20;28.70;;;8.90;35.77;102298.91;8295745;28;19919;-82
2022/03/11 16:56:17;;;;;;;;;;;11.10;29.60;;;9.28;35.92;102363.16;8287769;28;19929;-80
2022/03/11 17:00:39;;;;;;;;;;;11.10;30.10;;;9.16;35.63;102356.47;8293899;28;19918;-81
2022/03/11 17:05:03;;;;;;;;;;;10.80;29.60;;;9.11;35.58;102373.13;8276005;28;20020;-81
2022/03/11 17:09:24;;;;;;;;;;;10.90;29.30;;;9.14;35.40;102384.31;8277613;28;20016;-82
2022/03/11 17:13:46;;;;;;;;;;;10.90;30.30;;;9.04;35.57;102388.03;8283928;28;20350;-86
2022/03/11 17:18:08;;;;;;;;;;;10.80;30.70;;;8.95;35.77;102385.63;8280232;28;20008;-80
2022/03/11 17:22:29;;;;;;;;;;;10.70;29.50;;;8.88;35.67;102391.84;8280310;28;20298;-80
2022/03/11 17:26:53;;;;;;;;;;;10.50;30.60;;;8.77;35.49;102382.50;8290870;28;21189;-79
2022/03/11 17:31:15;;;;;;;;;;;10.60;30.40;;;8.75;35.67;102396.44;8290047;28;19922;-80
2022/03/11 17:35:42;;;;;;;;;;;10.40;30.70;;;8.57;35.56;102369.06;8292803;28;19929;-79
2022/03/11 17:40:04;;;;;;;;;;;10.50;30.20;;;8.45;35.49;102371.88;8292434;28;20008;-79
2022/03/11 17:44:26;;;;;;;;;;;10.40;29.80;;;8.56;35.71;102403.78;8293220;28;20008;-79
2022/03/11 17:48:48;;;;;;;;;;;10.30;29.70;;;8.44;35.76;102397.06;8292606;28;20421;-79
2022/03/11 17:53:10;;;;;;;;;;;10.30;30.10;;;8.43;35.54;102399.72;8285658;28;19929;-79
2022/03/11 17:57:32;;;;;;;;;;;10.20;30.10;;;8.25;35.56;102382.66;8277812;28;20388;-79
2022/03/11 18:01:54;;;;;;;;;;;10.10;27.80;;;8.25;35.55;102396.53;8278570;28;20294;-79
2022/03/11 18:06:15;;;;;;;;;;;10.10;30.10;;;8.17;35.79;102398.41;8276703;28;20365;-79
2022/03/11 18:10:37;;;;;;;;;;;10.00;30.90;;;8.11;36.00;102393.31;8273153;28;20470;-79
2022/03/11 18:14:59;;;;;;;;;;;9.90;31.00;;;8.08;35.61;102411.59;8294850;28;20020;-79
2022/03/11 18:19:21;;;;;;;;;;;9.90;30.90;;;8.03;35.70;102405.63;8267752;28;20023;-80
2022/03/11 18:23:43;;;;;;;;;;;9.80;29.60;;;7.87;35.49;102400.66;8278414;28;19918;-79
2022/03/11 18:28:05;;;;;;;;;;;9.70;30.80;;;7.85;35.59;102397.22;8278961;28;20375;-80
2022/03/11 18:32:26;;;;;;;;;;;9.70;30.70;;;7.70;35.54;102387.09;8291598;28;19917;-79
2022/03/11 18:36:55;;;;;;;;;;;9.50;30.60;;;7.65;35.97;102399.31;8294758;28;19928;-81
2022/03/11 18:41:16;;;;;;;;;;;9.50;31.10;;;7.61;35.53;102408.03;8254328;28;20545;-81
2022/03/11 18:45:38;;;;;;;;;;;9.40;31.00;;;7.51;35.80;102396.94;8297100;28;20004;-80
2022/03/11 18:49:59;;;;;;;;;;;9.30;31.20;;;7.49;35.85;102406.50;8297189;28;20008;-80
2022/03/11 18:54:22;;;;;;;;;;;9.20;30.10;;;7.28;35.63;102379.06;8287303;28;19940;-80
2022/03/11 18:58:45;;;;;;;;;;;9.10;30.20;;;7.24;35.98;102388.66;8277743;28;20000;-81
2022/03/11 19:03:06;;;;;;;;;;;9.10;30.40;;;7.18;35.52;102398.25;8255864;28;20052;-80
2022/03/11 19:07:28;;;;;;;;;;;9.10;30.60;;;6.99;35.92;102377.72;8292045;28;19998;-79
2022/03/11 19:11:50;;;;;;;;;;;9.00;30.70;;;7.08;36.02;102405.34;8268610;28;20016;-78
2022/03/11 19:16:12;;;;;;;;;;;8.90;31.20;;;6.89;35.68;102385.69;8264873;28;19932;-79
2022/03/11 19:20:34;;;;;;;;;;;8.80;30.70;;;6.81;35.58;102384.06;8276191;28;19940;-79
2022/03/11 19:24:58;;;;;;;;;;;8.90;29.50;;;6.84;35.90;102404.78;8298878;28;19917;-79
2022/03/11 19:29:20;;;;;;;;;;;8.70;30.00;;;6.78;35.99;102410.06;8282107;28;20382;-79
2022/03/11 19:33:45;;;;;;;;;;;8.70;28.90;;;6.65;36.17;102391.16;8282116;28;19922;-79
2022/03/11 19:38:10;;;;;;;;;;;8.60;30.10;;;6.68;35.97;102398.06;8290203;28;20008;-79
2022/03/11 19:42:34;;;;;;;;;;;8.40;29.70;;;6.68;35.72;102408.44;8281467;28;19924;-79
2022/03/11 19:46:56;;;;;;;;;;;8.50;29.60;;;6.62;36.18;102408.53;8283377;28;20008;-80
2022/03/11 19:51:21;;;;;;;;;;;8.50;29.90;;;6.55;35.43;102415.50;8279387;28;20016;-79
2022/03/11 19:55:45;;;;;;;;;;;8.30;30.20;;;6.56;36.08;102422.44;8283499;28;19921;-77
2022/03/11 20:00:07;;;;;;;;;;;8.30;29.90;;;6.30;35.82;102386.38;8277746;28;19921;-76
2022/03/11 20:04:33;;;;;;;;;;;8.30;30.30;;;6.38;35.61;102409.66;8290884;28;19921;-76
2022/03/11 20:08:56;;;;;;;;;;;8.30;30.20;;;6.36;35.89;102422.63;8287224;28;20322;-76
2022/03/11 20:13:19;;;;;;;;;;;8.30;30.00;;;6.35;35.53;102420.91;8290520;28;19925;-77
2022/03/11 20:17:43;;;;;;;;;;;8.20;29.90;;;6.29;35.58;102422.69;8289010;28;20390;-77